Terminal Aerodrome Forecast
Issued by NWS

Home | Current Version | Previous Version | Text Only | Print | Product List | Glossary On
Versions: 1 2 3 4 5 6 7 8 9 10 11 12 13 14 15 16 17
000
FTUS43 KGRR 011100
TAFBTL
TAF
KBTL 011140Z 0112/0212 21005KT 5SM BR SKC
     FM011300 25004KT P6SM SCT120
     FM011800 23004KT P6SM VCTS FEW040CB
     FM020100 VRB03KT P6SM SKC
     FM020900 00000KT 4SM BR SKC=

USA.gov is the U.S. government's official web portal to all federal, state and local government web resources and services.